DAL143 KTEX-KLAX
Flight info
| Callsign | DAL143 |
|---|---|
| Flight time | 1h 27m |
| Altitude | 38000 |
| Route | ETL V68 DVC NAVJO Q90 DNERO ANJLL4 |
| Aircraft | A319/M-SDE3FGHIRWY/LB1 |
Departure
| Time | 2026-04-20 20:09 |
|---|---|
| Airport | Telluride Regional Airport (KTEX) |
Arrival
| Time | 2026-04-20 21:36 |
|---|---|
| Airport | Los Angeles International Airport (KLAX) |
| Time | Latitude | Longitude | Altitude | Speed | Heading |
|---|---|---|---|---|---|
| 2026-04-20 19:50 | 37.95369 | -107.90083 | 9091 ft | 0 kts | 285° |
| 2026-04-20 20:06 | 37.95368 | -107.90092 | 9090 ft | 4 kts | 258° |
| 2026-04-20 20:06 | 37.95335 | -107.90102 | 9086 ft | 9 kts | 123° |
| 2026-04-20 20:06 | 37.95317 | -107.90031 | 9089 ft | 7 kts | 104° |
| 2026-04-20 20:07 | 37.95306 | -107.89977 | 9092 ft | 6 kts | 104° |
| 2026-04-20 20:07 | 37.95296 | -107.89933 | 9095 ft | 5 kts | 105° |
| 2026-04-20 20:07 | 37.95277 | -107.89845 | 9102 ft | 14 kts | 105° |
| 2026-04-20 20:07 | 37.95252 | -107.89729 | 9110 ft | 10 kts | 105° |
| 2026-04-20 20:08 | 37.95211 | -107.89678 | 9111 ft | 9 kts | 178° |
| 2026-04-20 20:08 | 37.95142 | -107.89732 | 9100 ft | 14 kts | 275° |
| 2026-04-20 20:08 | 37.95188 | -107.89965 | 9082 ft | 59 kts | 286° |
| 2026-04-20 20:08 | 37.95364 | -107.90793 | 9036 ft | 133 kts | 285° |
| 2026-04-20 20:09 | 37.95654 | -107.92096 | 9365 ft | 158 kts | 286° |
| 2026-04-20 20:09 | 37.95927 | -107.93336 | 10176 ft | 147 kts | 284° |
| 2026-04-20 20:09 | 37.96184 | -107.94605 | 10731 ft | 154 kts | 284° |
| 2026-04-20 20:09 | 37.96495 | -107.95908 | 11334 ft | 156 kts | 287° |
| 2026-04-20 20:10 | 37.96816 | -107.97194 | 11907 ft | 158 kts | 288° |
| 2026-04-20 20:10 | 37.97170 | -107.98576 | 12343 ft | 171 kts | 288° |
| 2026-04-20 20:10 | 37.97539 | -108.00029 | 12826 ft | 180 kts | 288° |
| 2026-04-20 20:10 | 37.97921 | -108.01530 | 13421 ft | 183 kts | 288° |
| 2026-04-20 20:11 | 37.98318 | -108.03100 | 13901 ft | 193 kts | 288° |
| 2026-04-20 20:11 | 37.98747 | -108.04789 | 14284 ft | 210 kts | 288° |
| 2026-04-20 20:11 | 37.99205 | -108.06600 | 14634 ft | 229 kts | 288° |
| 2026-04-20 20:11 | 37.99707 | -108.08590 | 15046 ft | 246 kts | 288° |
| 2026-04-20 20:12 | 38.00244 | -108.10722 | 15538 ft | 260 kts | 288° |
| 2026-04-20 20:12 | 38.00813 | -108.12984 | 15970 ft | 279 kts | 287° |
| 2026-04-20 20:12 | 38.01414 | -108.15377 | 16450 ft | 296 kts | 287° |
| 2026-04-20 20:13 | 38.02729 | -108.20620 | 17567 ft | 323 kts | 287° |
| 2026-04-20 20:13 | 38.03382 | -108.23289 | 18494 ft | 322 kts | 283° |
| 2026-04-20 20:13 | 38.03590 | -108.26086 | 19178 ft | 322 kts | 265° |
| 2026-04-20 20:13 | 38.03074 | -108.28840 | 19701 ft | 326 kts | 249° |
| 2026-04-20 20:14 | 38.02164 | -108.31509 | 20261 ft | 330 kts | 246° |
| 2026-04-20 20:14 | 38.01236 | -108.34140 | 20818 ft | 334 kts | 246° |
| 2026-04-20 20:14 | 38.00292 | -108.36835 | 21405 ft | 336 kts | 247° |
| 2026-04-20 20:14 | 37.99343 | -108.39576 | 21962 ft | 340 kts | 247° |
| 2026-04-20 20:15 | 37.98403 | -108.42310 | 22522 ft | 343 kts | 247° |
| 2026-04-20 20:15 | 37.97460 | -108.45059 | 23073 ft | 345 kts | 247° |
| 2026-04-20 20:15 | 37.96491 | -108.47888 | 23619 ft | 348 kts | 247° |
| 2026-04-20 20:15 | 37.95532 | -108.50686 | 24179 ft | 352 kts | 247° |
| 2026-04-20 20:16 | 37.94560 | -108.53519 | 24781 ft | 354 kts | 247° |
| 2026-04-20 20:16 | 37.93571 | -108.56398 | 25346 ft | 355 kts | 247° |
| 2026-04-20 20:16 | 37.92586 | -108.59262 | 25822 ft | 358 kts | 247° |
| 2026-04-20 20:16 | 37.91591 | -108.62153 | 26272 ft | 362 kts | 247° |
| 2026-04-20 20:17 | 37.90581 | -108.65084 | 26732 ft | 364 kts | 246° |
| 2026-04-20 20:17 | 37.89578 | -108.67992 | 27214 ft | 366 kts | 246° |
| 2026-04-20 20:17 | 37.88557 | -108.70950 | 27671 ft | 369 kts | 246° |
| 2026-04-20 20:17 | 37.87519 | -108.73949 | 28125 ft | 372 kts | 246° |
| 2026-04-20 20:18 | 37.86483 | -108.76944 | 28561 ft | 375 kts | 246° |
| 2026-04-20 20:18 | 37.85443 | -108.79942 | 29006 ft | 377 kts | 246° |
| 2026-04-20 20:18 | 37.84384 | -108.82996 | 29464 ft | 380 kts | 246° |
| 2026-04-20 20:18 | 37.83318 | -108.86068 | 29890 ft | 382 kts | 247° |
| 2026-04-20 20:19 | 37.82167 | -108.89069 | 30318 ft | 385 kts | 242° |
| 2026-04-20 20:19 | 37.80790 | -108.91955 | 30744 ft | 388 kts | 237° |
| 2026-04-20 20:19 | 37.79168 | -108.94732 | 31157 ft | 391 kts | 231° |
| 2026-04-20 20:19 | 37.77366 | -108.97282 | 31542 ft | 394 kts | 226° |
| 2026-04-20 20:20 | 37.75400 | -108.99694 | 31903 ft | 397 kts | 225° |
| 2026-04-20 20:20 | 37.73398 | -109.02087 | 32269 ft | 400 kts | 225° |
| 2026-04-20 20:20 | 37.71361 | -109.04517 | 32637 ft | 403 kts | 225° |
| 2026-04-20 20:20 | 37.69324 | -109.06947 | 32970 ft | 406 kts | 225° |
| 2026-04-20 20:21 | 37.67277 | -109.09392 | 33280 ft | 410 kts | 225° |
| 2026-04-20 20:21 | 37.65189 | -109.11883 | 33616 ft | 413 kts | 225° |
| 2026-04-20 20:21 | 37.63118 | -109.14352 | 33937 ft | 415 kts | 225° |
| 2026-04-20 20:21 | 37.61010 | -109.16867 | 34272 ft | 418 kts | 225° |
| 2026-04-20 20:22 | 37.58912 | -109.19368 | 34579 ft | 421 kts | 225° |
| 2026-04-20 20:22 | 37.56760 | -109.21929 | 34866 ft | 424 kts | 225° |
| 2026-04-20 20:22 | 37.54608 | -109.24490 | 35143 ft | 427 kts | 226° |
| 2026-04-20 20:22 | 37.52472 | -109.27033 | 35387 ft | 431 kts | 226° |
| 2026-04-20 20:23 | 37.50291 | -109.29626 | 35640 ft | 434 kts | 226° |
| 2026-04-20 20:23 | 37.48075 | -109.32259 | 35901 ft | 437 kts | 226° |
| 2026-04-20 20:23 | 37.45878 | -109.34866 | 36139 ft | 440 kts | 226° |
| 2026-04-20 20:23 | 37.43655 | -109.37498 | 36359 ft | 443 kts | 226° |
| 2026-04-20 20:24 | 37.41394 | -109.40176 | 36551 ft | 447 kts | 226° |
| 2026-04-20 20:24 | 37.39137 | -109.42848 | 36759 ft | 449 kts | 226° |
| 2026-04-20 20:24 | 37.36855 | -109.45550 | 36966 ft | 452 kts | 226° |
| 2026-04-20 20:24 | 37.34552 | -109.48272 | 37150 ft | 455 kts | 226° |
| 2026-04-20 20:25 | 37.32276 | -109.50956 | 37340 ft | 457 kts | 226° |
| 2026-04-20 20:25 | 37.29952 | -109.53696 | 37511 ft | 459 kts | 226° |
| 2026-04-20 20:25 | 37.27623 | -109.56438 | 37668 ft | 462 kts | 226° |
| 2026-04-20 20:25 | 37.25282 | -109.59197 | 37850 ft | 463 kts | 226° |
| 2026-04-20 20:26 | 37.22911 | -109.61984 | 38017 ft | 465 kts | 226° |
| 2026-04-20 20:26 | 37.20577 | -109.64726 | 38122 ft | 468 kts | 227° |
| 2026-04-20 20:26 | 37.15800 | -109.70335 | 38225 ft | 476 kts | 226° |
| 2026-04-20 20:27 | 37.10950 | -109.76017 | 38220 ft | 480 kts | 226° |
| 2026-04-20 20:27 | 37.06076 | -109.81715 | 38218 ft | 481 kts | 226° |
| 2026-04-20 20:28 | 37.01206 | -109.87395 | 38219 ft | 481 kts | 226° |
| 2026-04-20 20:28 | 36.96294 | -109.93116 | 38226 ft | 482 kts | 226° |
| 2026-04-20 20:29 | 36.91408 | -109.98796 | 38220 ft | 483 kts | 226° |
| 2026-04-20 20:29 | 36.86491 | -110.04506 | 38220 ft | 482 kts | 226° |
| 2026-04-20 20:30 | 36.81587 | -110.10188 | 38232 ft | 481 kts | 226° |
| 2026-04-20 20:30 | 36.76698 | -110.15843 | 38221 ft | 482 kts | 226° |
| 2026-04-20 20:31 | 36.71802 | -110.21493 | 38236 ft | 482 kts | 226° |
| 2026-04-20 20:31 | 36.66879 | -110.27165 | 38252 ft | 481 kts | 226° |
| 2026-04-20 20:32 | 36.62022 | -110.32856 | 38249 ft | 480 kts | 229° |
| 2026-04-20 20:32 | 36.57717 | -110.39162 | 38263 ft | 476 kts | 238° |
| 2026-04-20 20:33 | 36.54250 | -110.46053 | 38267 ft | 471 kts | 246° |
| 2026-04-20 20:33 | 36.51557 | -110.53395 | 38274 ft | 469 kts | 251° |
| 2026-04-20 20:34 | 36.49042 | -110.60844 | 38265 ft | 470 kts | 251° |
| 2026-04-20 20:34 | 36.46490 | -110.68346 | 38264 ft | 470 kts | 251° |
| 2026-04-20 20:35 | 36.43946 | -110.75779 | 38254 ft | 471 kts | 250° |
| 2026-04-20 20:35 | 36.41387 | -110.83225 | 38254 ft | 471 kts | 251° |
| 2026-04-20 20:36 | 36.38793 | -110.90754 | 38246 ft | 477 kts | 250° |
| 2026-04-20 20:36 | 36.36192 | -110.98283 | 38249 ft | 478 kts | 251° |
| 2026-04-20 20:37 | 36.33571 | -111.05851 | 38251 ft | 479 kts | 250° |
| 2026-04-20 20:37 | 36.30951 | -111.13397 | 38249 ft | 478 kts | 250° |
| 2026-04-20 20:38 | 36.28313 | -111.20969 | 38238 ft | 477 kts | 250° |
| 2026-04-20 20:38 | 36.25696 | -111.28473 | 38241 ft | 478 kts | 250° |
| 2026-04-20 20:39 | 36.23055 | -111.36021 | 38241 ft | 478 kts | 250° |
| 2026-04-20 20:39 | 36.20419 | -111.43539 | 38247 ft | 477 kts | 250° |
| 2026-04-20 20:40 | 36.17793 | -111.51007 | 38248 ft | 476 kts | 250° |
| 2026-04-20 20:40 | 36.15145 | -111.58524 | 38253 ft | 476 kts | 250° |
| 2026-04-20 20:41 | 36.12504 | -111.66002 | 38255 ft | 476 kts | 249° |
| 2026-04-20 20:41 | 36.09864 | -111.73453 | 38261 ft | 476 kts | 249° |
| 2026-04-20 20:42 | 36.07219 | -111.80920 | 38264 ft | 475 kts | 250° |
| 2026-04-20 20:42 | 36.04784 | -111.88473 | 38275 ft | 473 kts | 251° |
| 2026-04-20 20:43 | 36.02378 | -111.96021 | 38299 ft | 472 kts | 251° |
| 2026-04-20 20:43 | 35.99986 | -112.03507 | 38303 ft | 472 kts | 251° |
| 2026-04-20 20:44 | 35.97572 | -112.11032 | 38307 ft | 472 kts | 251° |
| 2026-04-20 20:44 | 35.95153 | -112.18545 | 38302 ft | 472 kts | 251° |
| 2026-04-20 20:45 | 35.92736 | -112.26042 | 38288 ft | 472 kts | 251° |
| 2026-04-20 20:45 | 35.90311 | -112.33540 | 38266 ft | 472 kts | 251° |
| 2026-04-20 20:46 | 35.87875 | -112.41048 | 38266 ft | 471 kts | 251° |
| 2026-04-20 20:46 | 35.85457 | -112.48487 | 38256 ft | 471 kts | 251° |
| 2026-04-20 20:47 | 35.83011 | -112.55994 | 38258 ft | 471 kts | 251° |
| 2026-04-20 20:47 | 35.80576 | -112.63446 | 38256 ft | 470 kts | 251° |
| 2026-04-20 20:48 | 35.78140 | -112.70881 | 38260 ft | 471 kts | 250° |
| 2026-04-20 20:48 | 35.75693 | -112.78329 | 38257 ft | 470 kts | 250° |
| 2026-04-20 20:49 | 35.73248 | -112.85758 | 38267 ft | 470 kts | 250° |
| 2026-04-20 20:49 | 35.70799 | -112.93178 | 38264 ft | 470 kts | 250° |
| 2026-04-20 20:50 | 35.68330 | -113.00639 | 38267 ft | 470 kts | 250° |
| 2026-04-20 20:50 | 35.65871 | -113.08060 | 38259 ft | 470 kts | 250° |
| 2026-04-20 20:51 | 35.63408 | -113.15464 | 38252 ft | 469 kts | 250° |
| 2026-04-20 20:51 | 35.60943 | -113.22857 | 38243 ft | 469 kts | 249° |
| 2026-04-20 20:52 | 35.58483 | -113.30222 | 38233 ft | 469 kts | 249° |
| 2026-04-20 20:52 | 35.56005 | -113.37618 | 38213 ft | 469 kts | 249° |
| 2026-04-20 20:53 | 35.53527 | -113.45001 | 38199 ft | 468 kts | 249° |
| 2026-04-20 20:53 | 35.51050 | -113.52361 | 38194 ft | 468 kts | 249° |
| 2026-04-20 20:54 | 35.48565 | -113.59725 | 38194 ft | 468 kts | 249° |
| 2026-04-20 20:54 | 35.46081 | -113.67069 | 38188 ft | 467 kts | 248° |
| 2026-04-20 20:55 | 35.43591 | -113.74412 | 38182 ft | 468 kts | 248° |
| 2026-04-20 20:55 | 35.41110 | -113.81714 | 38160 ft | 467 kts | 248° |
| 2026-04-20 20:56 | 35.38605 | -113.89066 | 38146 ft | 467 kts | 248° |
| 2026-04-20 20:56 | 35.36105 | -113.96388 | 38134 ft | 466 kts | 248° |
| 2026-04-20 20:57 | 35.33611 | -114.03674 | 38121 ft | 465 kts | 248° |
| 2026-04-20 20:57 | 35.31105 | -114.10976 | 38119 ft | 465 kts | 248° |
| 2026-04-20 20:58 | 35.28607 | -114.18237 | 38111 ft | 466 kts | 248° |
| 2026-04-20 20:58 | 35.26107 | -114.25494 | 38098 ft | 466 kts | 247° |
| 2026-04-20 20:59 | 35.23585 | -114.32793 | 38082 ft | 466 kts | 247° |
| 2026-04-20 20:59 | 35.21072 | -114.40046 | 38050 ft | 465 kts | 247° |
| 2026-04-20 21:00 | 35.18541 | -114.47334 | 38023 ft | 465 kts | 247° |
| 2026-04-20 21:00 | 35.16031 | -114.54551 | 38013 ft | 463 kts | 246° |
| 2026-04-20 21:01 | 35.13519 | -114.61747 | 38028 ft | 462 kts | 246° |
| 2026-04-20 21:01 | 35.11010 | -114.68968 | 38053 ft | 461 kts | 246° |
| 2026-04-20 21:02 | 35.08514 | -114.76149 | 38077 ft | 461 kts | 246° |
| 2026-04-20 21:02 | 35.06033 | -114.83270 | 38077 ft | 459 kts | 246° |
| 2026-04-20 21:03 | 35.03495 | -114.90385 | 38086 ft | 457 kts | 243° |
| 2026-04-20 21:03 | 35.00581 | -114.97266 | 38088 ft | 456 kts | 241° |
| 2026-04-20 21:04 | 34.97624 | -115.04082 | 38078 ft | 455 kts | 241° |
| 2026-04-20 21:04 | 34.94668 | -115.10888 | 38076 ft | 455 kts | 241° |
| 2026-04-20 21:05 | 34.91721 | -115.17662 | 38071 ft | 454 kts | 240° |
| 2026-04-20 21:05 | 34.88760 | -115.24452 | 38066 ft | 454 kts | 240° |
| 2026-04-20 21:06 | 34.85818 | -115.31196 | 38060 ft | 453 kts | 240° |
| 2026-04-20 21:06 | 34.82876 | -115.37921 | 38051 ft | 453 kts | 240° |
| 2026-04-20 21:07 | 34.79910 | -115.44703 | 38049 ft | 453 kts | 241° |
| 2026-04-20 21:07 | 34.77269 | -115.51605 | 38042 ft | 452 kts | 244° |
| 2026-04-20 21:08 | 34.74714 | -115.58556 | 38050 ft | 451 kts | 244° |
| 2026-04-20 21:08 | 34.72165 | -115.65481 | 38050 ft | 450 kts | 244° |
| 2026-04-20 21:09 | 34.69646 | -115.72310 | 38041 ft | 440 kts | 243° |
| 2026-04-20 21:09 | 34.67147 | -115.79060 | 38032 ft | 439 kts | 243° |
| 2026-04-20 21:10 | 34.64650 | -115.85788 | 38013 ft | 439 kts | 243° |
| 2026-04-20 21:10 | 34.62166 | -115.92494 | 38003 ft | 437 kts | 243° |
| 2026-04-20 21:11 | 34.59679 | -115.99248 | 37995 ft | 437 kts | 244° |
| 2026-04-20 21:11 | 34.57222 | -116.05909 | 38001 ft | 435 kts | 243° |
| 2026-04-20 21:12 | 34.54750 | -116.12588 | 38009 ft | 434 kts | 244° |
| 2026-04-20 21:12 | 34.52296 | -116.19207 | 37841 ft | 430 kts | 244° |
| 2026-04-20 21:13 | 34.51073 | -116.22502 | 37182 ft | 429 kts | 244° |
| 2026-04-20 21:13 | 34.49839 | -116.25821 | 36192 ft | 433 kts | 244° |
| 2026-04-20 21:13 | 34.48605 | -116.29131 | 35181 ft | 437 kts | 244° |
| 2026-04-20 21:13 | 34.47350 | -116.32498 | 34189 ft | 441 kts | 244° |
| 2026-04-20 21:14 | 34.46097 | -116.35861 | 33239 ft | 445 kts | 244° |
| 2026-04-20 21:14 | 34.44828 | -116.39262 | 32318 ft | 448 kts | 244° |
| 2026-04-20 21:14 | 34.43546 | -116.42693 | 31317 ft | 446 kts | 244° |
| 2026-04-20 21:14 | 34.42280 | -116.46079 | 29995 ft | 449 kts | 244° |
| 2026-04-20 21:15 | 34.40942 | -116.49471 | 28469 ft | 454 kts | 242° |
| 2026-04-20 21:15 | 34.39548 | -116.52862 | 26919 ft | 457 kts | 242° |
| 2026-04-20 21:15 | 34.38131 | -116.56303 | 25377 ft | 460 kts | 242° |
| 2026-04-20 21:15 | 34.36716 | -116.59732 | 23854 ft | 468 kts | 243° |
| 2026-04-20 21:16 | 34.35267 | -116.63242 | 22452 ft | 472 kts | 243° |
| 2026-04-20 21:16 | 34.33814 | -116.66767 | 21862 ft | 458 kts | 242° |
| 2026-04-20 21:16 | 34.32443 | -116.70132 | 21621 ft | 440 kts | 243° |
| 2026-04-20 21:16 | 34.31126 | -116.73416 | 21379 ft | 423 kts | 243° |
| 2026-04-20 21:17 | 34.29866 | -116.76559 | 21137 ft | 409 kts | 243° |
| 2026-04-20 21:17 | 34.28665 | -116.79556 | 20823 ft | 397 kts | 243° |
| 2026-04-20 21:17 | 34.27467 | -116.82536 | 20497 ft | 387 kts | 243° |
| 2026-04-20 21:17 | 34.26307 | -116.85416 | 20173 ft | 378 kts | 243° |
| 2026-04-20 21:18 | 34.25174 | -116.88222 | 19860 ft | 369 kts | 243° |
| 2026-04-20 21:18 | 34.24068 | -116.90962 | 19610 ft | 360 kts | 242° |
| 2026-04-20 21:18 | 34.22980 | -116.93652 | 19366 ft | 356 kts | 242° |
| 2026-04-20 21:18 | 34.21907 | -116.96336 | 19169 ft | 355 kts | 244° |
| 2026-04-20 21:19 | 34.20952 | -116.99080 | 19152 ft | 355 kts | 247° |
| 2026-04-20 21:19 | 34.20133 | -117.01906 | 19141 ft | 355 kts | 250° |
| 2026-04-20 21:19 | 34.19364 | -117.04736 | 19143 ft | 356 kts | 250° |
| 2026-04-20 21:20 | 34.17831 | -117.10403 | 19130 ft | 357 kts | 250° |
| 2026-04-20 21:20 | 34.17065 | -117.13233 | 19114 ft | 357 kts | 250° |
| 2026-04-20 21:20 | 34.16295 | -117.16073 | 19114 ft | 356 kts | 250° |
| 2026-04-20 21:20 | 34.15514 | -117.18916 | 19118 ft | 356 kts | 249° |
| 2026-04-20 21:21 | 34.14735 | -117.21748 | 19061 ft | 352 kts | 249° |
| 2026-04-20 21:21 | 34.13981 | -117.24495 | 18533 ft | 346 kts | 249° |
| 2026-04-20 21:21 | 34.13226 | -117.27228 | 17565 ft | 344 kts | 250° |
| 2026-04-20 21:21 | 34.12472 | -117.29957 | 16554 ft | 342 kts | 250° |
| 2026-04-20 21:22 | 34.11739 | -117.32618 | 15636 ft | 338 kts | 249° |
| 2026-04-20 21:22 | 34.10998 | -117.35299 | 14713 ft | 334 kts | 250° |
| 2026-04-20 21:22 | 34.10285 | -117.37914 | 13974 ft | 326 kts | 250° |
| 2026-04-20 21:22 | 34.09647 | -117.40452 | 13519 ft | 309 kts | 251° |
| 2026-04-20 21:23 | 34.09060 | -117.42840 | 13116 ft | 293 kts | 251° |
| 2026-04-20 21:23 | 34.08490 | -117.45146 | 12737 ft | 281 kts | 251° |
| 2026-04-20 21:23 | 34.07934 | -117.47379 | 12373 ft | 275 kts | 250° |
| 2026-04-20 21:23 | 34.07390 | -117.49547 | 12024 ft | 272 kts | 250° |
| 2026-04-20 21:24 | 34.06817 | -117.51796 | 11913 ft | 285 kts | 250° |
| 2026-04-20 21:24 | 34.06233 | -117.54082 | 11810 ft | 281 kts | 250° |
| 2026-04-20 21:24 | 34.05667 | -117.56300 | 11476 ft | 280 kts | 250° |
| 2026-04-20 21:24 | 34.05093 | -117.58546 | 11135 ft | 278 kts | 250° |
| 2026-04-20 21:25 | 34.04518 | -117.60783 | 10786 ft | 278 kts | 250° |
| 2026-04-20 21:25 | 34.03954 | -117.62990 | 10458 ft | 277 kts | 250° |
| 2026-04-20 21:25 | 34.03380 | -117.65229 | 10172 ft | 275 kts | 250° |
| 2026-04-20 21:25 | 34.02814 | -117.67436 | 10039 ft | 277 kts | 250° |
| 2026-04-20 21:26 | 34.02311 | -117.69691 | 9944 ft | 278 kts | 255° |
| 2026-04-20 21:26 | 34.01982 | -117.71992 | 9671 ft | 280 kts | 259° |
| 2026-04-20 21:26 | 34.01751 | -117.74326 | 9318 ft | 280 kts | 261° |
| 2026-04-20 21:26 | 34.01533 | -117.76636 | 8988 ft | 278 kts | 261° |
| 2026-04-20 21:27 | 34.01313 | -117.78945 | 8659 ft | 276 kts | 261° |
| 2026-04-20 21:27 | 34.01094 | -117.81238 | 8332 ft | 275 kts | 261° |
| 2026-04-20 21:27 | 34.00875 | -117.83495 | 8009 ft | 273 kts | 261° |
| 2026-04-20 21:27 | 34.00651 | -117.85786 | 7686 ft | 271 kts | 261° |
| 2026-04-20 21:28 | 34.00431 | -117.88017 | 7377 ft | 271 kts | 261° |
| 2026-04-20 21:28 | 34.00228 | -117.90263 | 7063 ft | 271 kts | 263° |
| 2026-04-20 21:28 | 34.00080 | -117.92517 | 6762 ft | 270 kts | 264° |
| 2026-04-20 21:28 | 33.99919 | -117.94783 | 6462 ft | 268 kts | 263° |
| 2026-04-20 21:29 | 33.99735 | -117.96999 | 6232 ft | 263 kts | 262° |
| 2026-04-20 21:29 | 33.99533 | -117.99143 | 6030 ft | 257 kts | 261° |
| 2026-04-20 21:29 | 33.99318 | -118.01257 | 5789 ft | 253 kts | 261° |
| 2026-04-20 21:29 | 33.99095 | -118.03359 | 5553 ft | 249 kts | 261° |
| 2026-04-20 21:30 | 33.98872 | -118.05409 | 5323 ft | 245 kts | 261° |
| 2026-04-20 21:30 | 33.98652 | -118.07420 | 5101 ft | 242 kts | 261° |
| 2026-04-20 21:30 | 33.98434 | -118.09421 | 4875 ft | 238 kts | 261° |
| 2026-04-20 21:30 | 33.98222 | -118.11370 | 4639 ft | 235 kts | 262° |
| 2026-04-20 21:31 | 33.98014 | -118.13300 | 4342 ft | 235 kts | 262° |
| 2026-04-20 21:31 | 33.97804 | -118.15260 | 4037 ft | 230 kts | 262° |
| 2026-04-20 21:31 | 33.97607 | -118.17117 | 3739 ft | 220 kts | 262° |
| 2026-04-20 21:31 | 33.97417 | -118.18919 | 3451 ft | 211 kts | 262° |
| 2026-04-20 21:32 | 33.97238 | -118.20624 | 3201 ft | 199 kts | 262° |
| 2026-04-20 21:32 | 33.97073 | -118.22195 | 2997 ft | 182 kts | 263° |
| 2026-04-20 21:32 | 33.96921 | -118.23658 | 2751 ft | 176 kts | 263° |
| 2026-04-20 21:32 | 33.96768 | -118.25120 | 2513 ft | 175 kts | 263° |
| 2026-04-20 21:33 | 33.96617 | -118.26569 | 2280 ft | 174 kts | 262° |
| 2026-04-20 21:33 | 33.96468 | -118.28005 | 2050 ft | 173 kts | 262° |
| 2026-04-20 21:33 | 33.96319 | -118.29445 | 1826 ft | 172 kts | 262° |
| 2026-04-20 21:33 | 33.96178 | -118.30813 | 1625 ft | 160 kts | 262° |
| 2026-04-20 21:34 | 33.96047 | -118.32084 | 1409 ft | 146 kts | 262° |
| 2026-04-20 21:34 | 33.95928 | -118.33234 | 1212 ft | 133 kts | 262° |
| 2026-04-20 21:34 | 33.95814 | -118.34336 | 1054 ft | 132 kts | 262° |
| 2026-04-20 21:34 | 33.95701 | -118.35429 | 894 ft | 131 kts | 262° |
| 2026-04-20 21:35 | 33.95590 | -118.36502 | 733 ft | 130 kts | 262° |
| 2026-04-20 21:35 | 33.95482 | -118.37567 | 560 ft | 129 kts | 262° |
| 2026-04-20 21:35 | 33.95376 | -118.38646 | 386 ft | 128 kts | 263° |
| 2026-04-20 21:35 | 33.95269 | -118.39700 | 216 ft | 127 kts | 262° |
| 2026-04-20 21:36 | 33.95160 | -118.40723 | 122 ft | 115 kts | 262° |
| 2026-04-20 21:36 | 33.95080 | -118.41473 | 123 ft | 65 kts | 263° |
| 2026-04-20 21:36 | 33.95049 | -118.41808 | 123 ft | 19 kts | 263° |
| 2026-04-20 21:36 | 33.95027 | -118.41972 | 121 ft | 20 kts | 260° |
| 2026-04-20 21:37 | 33.94981 | -118.42136 | 120 ft | 20 kts | 240° |
| 2026-04-20 21:37 | 33.94886 | -118.42264 | 119 ft | 20 kts | 211° |
| 2026-04-20 21:37 | 33.94742 | -118.42275 | 117 ft | 21 kts | 174° |
| 2026-04-20 21:37 | 33.94687 | -118.42187 | 117 ft | 15 kts | 83° |
| 2026-04-20 21:38 | 33.94700 | -118.42063 | 119 ft | 14 kts | 82° |
| 2026-04-20 21:38 | 33.94713 | -118.41943 | 120 ft | 15 kts | 82° |
| 2026-04-20 21:38 | 33.94732 | -118.41773 | 120 ft | 25 kts | 83° |
| 2026-04-20 21:38 | 33.94754 | -118.41547 | 121 ft | 26 kts | 84° |
| 2026-04-20 21:39 | 33.94788 | -118.41343 | 122 ft | 23 kts | 83° |
| 2026-04-20 21:39 | 33.94811 | -118.41152 | 123 ft | 22 kts | 84° |
| 2026-04-20 21:39 | 33.94826 | -118.40971 | 123 ft | 20 kts | 92° |
| 2026-04-20 21:39 | 33.94736 | -118.40850 | 121 ft | 19 kts | 147° |
| 2026-04-20 21:40 | 33.94700 | -118.40823 | 121 ft | 0 kts | 149° |
| 2026-04-20 21:40 | 33.94694 | -118.40819 | 121 ft | 2 kts | 149° |
| 2026-04-20 21:40 | 33.94693 | -118.40818 | 120 ft | 0 kts | 149° |